createdAt,value
2018-12-15T00:03:48.119Z,2.36
2018-12-15T00:08:54.336Z,2.33
2018-12-15T00:13:58.693Z,2.32
2018-12-15T00:19:02.998Z,2.31
2018-12-15T00:24:07.486Z,2.25
2018-12-15T00:29:11.679Z,2.31
2018-12-15T00:34:15.967Z,2.31
2018-12-15T00:39:20.179Z,2.36
2018-12-15T00:44:24.350Z,2.29
2018-12-15T00:49:28.623Z,2.20
2018-12-15T00:54:32.781Z,2.16
2018-12-15T00:59:37.780Z,2.18
2018-12-15T01:04:42.156Z,2.14
2018-12-15T01:09:46.548Z,2.19
2018-12-15T01:14:50.748Z,2.23
2018-12-15T01:19:55.027Z,2.18
2018-12-15T01:24:59.437Z,2.18
2018-12-15T01:30:03.884Z,2.15
2018-12-15T01:35:08.442Z,2.11
2018-12-15T01:40:12.668Z,2.12
2018-12-15T01:45:16.922Z,2.18
2018-12-15T01:50:21.368Z,2.09
2018-12-15T01:55:26.096Z,2.02
2018-12-15T02:00:30.361Z,2.11
2018-12-15T02:05:34.554Z,2.03
2018-12-15T02:10:38.793Z,2.04
2018-12-15T02:15:43.093Z,1.98
2018-12-15T02:20:47.251Z,2.01
2018-12-15T02:25:51.476Z,1.95
2018-12-15T02:30:55.668Z,1.95
2018-12-15T02:35:59.926Z,1.92
2018-12-15T02:41:04.292Z,1.93
2018-12-15T02:46:08.512Z,1.91
2018-12-15T02:51:12.637Z,1.97
2018-12-15T02:56:16.954Z,1.91
2018-12-15T03:01:21.127Z,1.88
2018-12-15T03:06:25.273Z,1.90
2018-12-15T03:11:29.593Z,1.93
2018-12-15T03:16:33.953Z,1.97
2018-12-15T03:21:39.557Z,1.93
2018-12-15T03:26:43.993Z,1.92
2018-12-15T03:31:48.376Z,1.90
2018-12-15T03:36:53.004Z,1.88
2018-12-15T03:41:58.274Z,1.87
2018-12-15T03:47:02.581Z,1.91
2018-12-15T03:52:06.800Z,1.93
2018-12-15T03:57:11.070Z,2.01
2018-12-15T04:02:15.328Z,1.92
2018-12-15T04:07:19.528Z,1.87
2018-12-15T04:12:24.481Z,1.85
2018-12-15T04:17:28.706Z,1.91
2018-12-15T04:22:32.928Z,1.87
2018-12-15T04:27:37.068Z,1.74
2018-12-15T04:32:45.315Z,1.69
2018-12-15T04:37:49.977Z,1.76
2018-12-15T04:42:54.176Z,1.70
2018-12-15T04:47:58.438Z,1.60
2018-12-15T04:53:02.635Z,1.67
2018-12-15T04:58:07.371Z,1.70
2018-12-15T05:03:14.322Z,1.74
2018-12-15T05:08:18.624Z,1.66
2018-12-15T05:13:22.854Z,1.68
2018-12-15T05:18:27.184Z,1.61
2018-12-15T05:23:32.181Z,1.63
2018-12-15T05:28:36.475Z,1.55
2018-12-15T05:33:40.828Z,1.59
2018-12-15T05:38:45.501Z,1.58
2018-12-15T05:43:49.882Z,1.67
2018-12-15T05:48:54.197Z,1.62
2018-12-15T05:53:58.609Z,1.59
2018-12-15T05:59:02.987Z,1.61
2018-12-15T06:04:07.213Z,1.62
2018-12-15T06:09:11.367Z,1.46
2018-12-15T06:14:16.227Z,1.47
2018-12-15T06:19:23.499Z,1.43
2018-12-15T06:24:29.712Z,1.42
2018-12-15T06:29:34.077Z,1.49
2018-12-15T06:34:39.638Z,1.50
2018-12-15T06:39:43.839Z,1.51
2018-12-15T06:44:48.250Z,1.52
2018-12-15T06:49:52.451Z,1.40
2018-12-15T06:54:56.645Z,1.43
2018-12-15T07:00:00.789Z,1.45
2018-12-15T07:05:05.274Z,1.47
2018-12-15T07:10:09.500Z,1.48
2018-12-15T07:15:13.890Z,1.45
2018-12-15T07:20:18.098Z,1.44
2018-12-15T07:25:22.318Z,1.43
2018-12-15T07:30:27.066Z,1.47
2018-12-15T07:35:31.194Z,1.49
2018-12-15T07:40:35.351Z,1.57
2018-12-15T07:45:39.586Z,1.49
2018-12-15T07:50:43.748Z,1.48
2018-12-15T07:55:48.300Z,1.53
2018-12-15T08:00:52.444Z,1.49
2018-12-15T08:05:56.696Z,1.48
2018-12-15T08:11:06.150Z,1.48
2018-12-15T08:16:10.422Z,1.44
2018-12-15T08:21:14.774Z,1.49
2018-12-15T08:26:19.071Z,1.52
2018-12-15T08:31:25.390Z,1.54
2018-12-15T08:36:29.733Z,1.56
2018-12-15T08:41:33.982Z,1.59
2018-12-15T08:46:38.224Z,1.60
2018-12-15T08:51:42.579Z,1.61
2018-12-15T08:56:46.965Z,1.57
2018-12-15T09:01:51.554Z,1.57
2018-12-15T09:06:55.870Z,1.63
2018-12-15T09:12:00.103Z,1.64
2018-12-15T09:17:04.555Z,1.64
2018-12-15T09:22:11.405Z,1.66
2018-12-15T09:27:15.358Z,1.66
2018-12-15T09:32:19.783Z,1.59
2018-12-15T09:37:24.918Z,1.47
2018-12-15T09:42:30.196Z,1.48
2018-12-15T09:47:34.941Z,1.57
2018-12-15T09:52:39.172Z,1.46
2018-12-15T09:57:44.676Z,1.48
2018-12-15T10:02:49.509Z,1.46
2018-12-15T10:07:54.191Z,1.51
2018-12-15T10:12:58.577Z,1.51
2018-12-15T10:18:03.167Z,1.58
2018-12-15T10:23:12.033Z,1.63
2018-12-15T10:28:19.124Z,1.56
2018-12-15T10:33:23.572Z,1.60
2018-12-15T10:38:28.981Z,1.71
2018-12-15T10:43:34.687Z,1.66
2018-12-15T10:48:41.668Z,1.65
2018-12-15T10:53:49.379Z,1.71
2018-12-15T10:58:54.389Z,1.70
2018-12-15T11:04:00.893Z,1.71
2018-12-15T11:09:08.217Z,1.74
2018-12-15T11:14:14.885Z,1.64
2018-12-15T11:19:38.075Z,1.65
2018-12-15T11:24:44.111Z,1.75
2018-12-15T11:29:49.080Z,1.78
2018-12-15T11:34:53.439Z,1.71
2018-12-15T11:39:57.773Z,1.70
2018-12-15T11:45:02.627Z,1.76
2018-12-15T11:50:08.519Z,1.74
2018-12-15T11:55:13.319Z,1.75
2018-12-15T12:00:18.217Z,1.77
2018-12-15T12:05:22.957Z,1.78
2018-12-15T12:10:27.263Z,1.77
2018-12-15T12:15:31.824Z,1.77
2018-12-15T12:20:36.289Z,1.74
2018-12-15T12:25:40.923Z,1.62
2018-12-15T12:30:49.028Z,1.57
2018-12-15T12:36:04.381Z,1.63
2018-12-15T12:41:08.843Z,1.66
2018-12-15T12:46:15.268Z,1.66
2018-12-15T12:51:19.511Z,1.72
2018-12-15T12:56:23.941Z,1.69
2018-12-15T13:01:28.503Z,1.65
2018-12-15T13:06:32.871Z,1.62
2018-12-15T13:11:37.178Z,1.54
2018-12-15T13:16:41.945Z,1.63
2018-12-15T13:21:46.225Z,1.51
2018-12-15T13:26:50.583Z,1.47
2018-12-15T13:31:55.267Z,1.54
2018-12-15T13:37:00.091Z,1.61
2018-12-15T13:42:05.513Z,1.67
2018-12-15T13:47:09.971Z,1.65
2018-12-15T13:52:15.423Z,1.60
2018-12-15T13:57:20.049Z,1.64
2018-12-15T14:02:24.507Z,1.57
2018-12-15T14:07:29.007Z,1.59
2018-12-15T14:12:33.306Z,1.52
2018-12-15T14:17:37.945Z,1.54
2018-12-15T14:22:42.375Z,1.64
2018-12-15T14:27:46.596Z,1.58
2018-12-15T14:32:51.022Z,1.60
2018-12-15T14:37:55.351Z,1.55
2018-12-15T14:43:00.428Z,1.53
2018-12-15T14:48:04.761Z,1.56
2018-12-15T14:53:09.129Z,1.48
2018-12-15T14:58:13.441Z,1.51
2018-12-15T15:03:19.227Z,1.52
2018-12-15T15:08:24.451Z,1.56
2018-12-15T15:13:34.287Z,1.50
2018-12-15T15:18:39.911Z,1.51
2018-12-15T15:23:44.258Z,1.52
2018-12-15T15:28:48.590Z,1.59
2018-12-15T15:33:52.917Z,1.51
2018-12-15T15:38:58.215Z,1.58
2018-12-15T15:44:02.713Z,1.57
2018-12-15T15:49:07.620Z,1.54
2018-12-15T15:54:12.014Z,1.48
2018-12-15T15:59:16.234Z,1.56
2018-12-15T16:04:20.456Z,1.54
2018-12-15T16:09:24.896Z,1.49
2018-12-15T16:14:30.352Z,1.51
2018-12-15T16:19:35.686Z,1.45
2018-12-15T16:24:40.493Z,1.42
2018-12-15T16:29:44.788Z,1.41
2018-12-15T16:34:49.018Z,1.43
2018-12-15T16:39:53.461Z,1.48
2018-12-15T16:44:57.853Z,1.46
2018-12-15T16:50:02.374Z,1.43
2018-12-15T16:55:07.065Z,1.42
2018-12-15T17:00:14.251Z,1.43
2018-12-15T17:05:18.780Z,1.37
2018-12-15T17:10:23.335Z,1.33
2018-12-15T17:15:28.090Z,1.29
2018-12-15T17:20:33.266Z,1.29
2018-12-15T17:25:37.586Z,1.23
2018-12-15T17:30:41.842Z,1.23
2018-12-15T17:35:48.999Z,1.33
2018-12-15T17:40:57.730Z,1.32
2018-12-15T17:46:12.555Z,1.29
2018-12-15T17:51:18.651Z,1.35
2018-12-15T17:56:23.858Z,1.39
2018-12-15T18:01:28.190Z,1.47
2018-12-15T18:06:33.353Z,1.47
2018-12-15T18:11:38.355Z,1.48
2018-12-15T18:16:43.694Z,1.46
2018-12-15T18:21:48.079Z,1.42
2018-12-15T18:26:52.675Z,1.49
2018-12-15T18:31:56.982Z,1.51
2018-12-15T18:37:01.618Z,1.58
2018-12-15T18:42:10.891Z,1.59
2018-12-15T18:47:12.618Z,1.61
2018-12-15T18:52:17.224Z,1.65
2018-12-15T18:57:22.631Z,1.64
2018-12-15T19:02:32.937Z,1.59
2018-12-15T19:07:37.425Z,1.52
2018-12-15T19:12:45.265Z,1.58
2018-12-15T19:17:50.983Z,1.65
2018-12-15T19:22:55.348Z,1.60
2018-12-15T19:28:04.929Z,1.55
2018-12-15T19:33:09.149Z,1.60
2018-12-15T19:38:13.758Z,1.61
2018-12-15T19:48:40.546Z,1.55
2018-12-15T19:53:45.828Z,1.51
2018-12-15T19:58:50.236Z,1.60
2018-12-15T20:03:54.496Z,1.59
2018-12-15T20:09:01.464Z,1.56
2018-12-15T20:14:08.180Z,1.64
2018-12-15T20:19:13.666Z,1.65
2018-12-15T20:24:19.561Z,1.50
2018-12-15T20:29:24.811Z,1.45
2018-12-15T20:34:29.314Z,1.47
2018-12-15T20:39:34.081Z,1.48
2018-12-15T20:44:41.748Z,1.52
2018-12-15T20:49:49.434Z,1.60
2018-12-15T20:54:55.100Z,1.57
2018-12-15T20:59:59.493Z,1.52
2018-12-15T21:10:19.685Z,1.54
2018-12-15T21:15:28.035Z,1.58
2018-12-15T21:20:41.301Z,1.61
2018-12-15T21:25:47.171Z,1.58
2018-12-15T21:30:51.937Z,1.60
2018-12-15T21:35:56.192Z,1.59
2018-12-15T21:41:00.585Z,1.57
2018-12-15T21:46:10.636Z,1.60
2018-12-15T21:51:15.876Z,1.70
2018-12-15T21:56:22.021Z,1.68
2018-12-15T22:01:26.395Z,1.59
2018-12-15T22:06:31.103Z,1.54
2018-12-15T22:11:35.410Z,1.56
2018-12-15T22:16:39.770Z,1.54
2018-12-15T22:21:44.031Z,1.56
2018-12-15T22:26:51.714Z,1.60
2018-12-15T22:32:02.696Z,1.54
2018-12-15T22:37:06.933Z,1.54
2018-12-15T22:42:11.205Z,1.55
2018-12-15T22:47:15.502Z,1.66
2018-12-15T22:52:19.759Z,1.83
2018-12-15T22:57:23.914Z,1.89
2018-12-15T23:02:28.180Z,1.77
2018-12-15T23:07:34.504Z,1.72
2018-12-15T23:12:39.425Z,1.65
2018-12-15T23:17:44.874Z,1.60
2018-12-15T23:22:49.004Z,1.55
2018-12-15T23:27:53.468Z,1.53
2018-12-15T23:32:57.769Z,1.58
2018-12-15T23:38:01.935Z,1.59
2018-12-15T23:43:06.367Z,1.56
2018-12-15T23:48:10.580Z,1.53
2018-12-15T23:53:14.805Z,1.56
2018-12-15T23:58:19.037Z,1.57
